Anderson Regional Airport
KAND : now visible

Airfield :











YOU CAN JOIN US ON...

 
LOGIN :

Register | Disclaimer

   EN    FR    IT 

 









Legend :    VFR   Marginal VFR   IFR   Intensive IFR   Very Intensive IFR
Visi :
Ceiling :
>= 8 km
>= 3000ft
5 to 8 km
1000 to 3000 ft
1500m to 5 km
500 to 1000 ft
800 to 1500m
200 to 500 ft
< 800m
< 200 ft
Symbols :   Thunderstorms  Fog  Heavy snow  Heavy precipitations  Wind > 20 kt






- Airport Elevation : 782 ft


KAND - Anderson Regional

CURRENT METAR :
  • 241356Z AUTO 00000KT 10SM FEW002 20/18 A3006 RMK AO2 SLP172 T02000183

EXPIRED METARs :
  • 241347Z AUTO 00000KT 10SM FEW002 19/18 A3006 RMK AO2 T01890178
  • 241256Z AUTO 00000KT 10SM OVC090 18/17 A3005 RMK AO2 SLP171 T01780167
  • 241156Z AUTO 00000KT 10SM FEW049 SCT060 OVC075 17/16 A3004 RMK AO2 RAB08E53 SLP165 P0006 60006 70006 T01720161 10172 20156 58002

TAF KAND
Valid from the 24 at 12:00 until the 25 at 12:00 UTC


241130Z 2412/2512 00000KT P6SM SCT040 SCT060
FM241400 23003KT P6SM SCT100
FM241800 23005KT P6SM VCSH SCT100
PROB30 2421/2503 4SM TSRA BR OVC025CB
FM250300 00000KT 6SM -RA BR BKN015
FM250500 00000KT 3SM -RA BR BKN007
KZTL FIR / North America



MET'MAP, your aeronautical weather chart ! - Copyright ORBIFLY December 2007 - Disclaimer

ORBIFLY MET'MAP TEAM :

Programming & Development : Alexandra Zaïnal
Concept & original design : Baudouin d'Aumeries
Assistance for programming : Marc-Olivier Méhu
Technical & hardware support : Manuel Goepfert

Contact : metmap@orbifly.com




SOURCES & CREDITS :

   NOAA       Earth
Advisory